createdAt,value
2022-08-28T00:00:22.935Z,8.50
2022-08-28T00:03:49.338Z,8.35
2022-08-28T00:07:17.611Z,7.95
2022-08-28T00:10:44.100Z,7.82
2022-08-28T00:14:11.674Z,8.20
2022-08-28T00:17:37.804Z,7.68
2022-08-28T00:21:04.894Z,8.05
2022-08-28T00:24:31.099Z,8.75
2022-08-28T00:27:58.300Z,8.02
2022-08-28T00:34:50.759Z,8.90
2022-08-28T00:38:19.965Z,8.27
2022-08-28T00:41:47.791Z,9.15
2022-08-28T00:45:17.129Z,8.65
2022-08-28T00:48:44.130Z,8.32
2022-08-28T00:52:15.687Z,9.07
2022-08-28T00:55:45.029Z,8.00
2022-08-28T00:59:15.703Z,8.52
2022-08-28T01:02:42.564Z,7.85
2022-08-28T01:06:09.343Z,8.57
2022-08-28T01:09:38.407Z,8.65
2022-08-28T01:13:07.109Z,8.50
2022-08-28T01:16:34.476Z,8.20
2022-08-28T01:20:05.046Z,8.27
2022-08-28T01:23:42.235Z,8.52
2022-08-28T01:27:08.211Z,10.27
2022-08-28T01:30:34.574Z,11.27
2022-08-28T01:34:01.339Z,11.00
2022-08-28T01:37:29.390Z,12.20
2022-08-28T01:40:57.692Z,10.80
2022-08-28T01:44:26.082Z,11.85
2022-08-28T01:47:55.493Z,11.23
2022-08-28T01:51:24.505Z,10.63
2022-08-28T01:54:52.153Z,11.32
2022-08-28T01:58:18.891Z,12.05
2022-08-28T02:01:45.679Z,12.80
2022-08-28T02:05:12.079Z,11.63
2022-08-28T02:08:38.361Z,11.68
2022-08-28T02:12:05.813Z,10.52
2022-08-28T02:15:33.484Z,9.98
2022-08-28T02:19:00.796Z,9.25
2022-08-28T02:22:26.979Z,9.10
2022-08-28T02:25:52.843Z,8.77
2022-08-28T02:29:19.027Z,8.45
2022-08-28T02:32:46.481Z,7.97
2022-08-28T02:39:40.278Z,8.20
2022-08-28T02:43:06.314Z,7.75
2022-08-28T02:46:32.618Z,7.22
2022-08-28T02:49:58.737Z,8.75
2022-08-28T02:53:24.604Z,8.27
2022-08-28T02:56:51.355Z,7.90
2022-08-28T03:00:20.152Z,8.48
2022-08-28T03:03:46.616Z,8.45
2022-08-28T03:07:13.948Z,8.03
2022-08-28T03:10:40.298Z,7.88
2022-08-28T03:14:06.182Z,8.52
2022-08-28T03:17:32.452Z,7.85
2022-08-28T03:20:58.389Z,7.47
2022-08-28T03:24:25.127Z,8.13
2022-08-28T03:27:51.054Z,7.97
2022-08-28T03:31:19.943Z,7.13
2022-08-28T03:34:46.104Z,7.40
2022-08-28T03:38:12.766Z,7.65
2022-08-28T03:41:40.714Z,8.20
2022-08-28T03:45:08.696Z,8.02
2022-08-28T03:48:36.784Z,7.60
2022-08-28T03:52:06.342Z,8.30
2022-08-28T03:55:32.237Z,7.68
2022-08-28T03:59:01.232Z,7.53
2022-08-28T04:02:27.401Z,8.50
2022-08-28T04:05:53.368Z,8.23
2022-08-28T04:09:19.821Z,8.02
2022-08-28T04:12:46.502Z,7.85
2022-08-28T04:16:13.757Z,7.78
2022-08-28T04:19:42.131Z,7.55
2022-08-28T04:23:10.126Z,7.97
2022-08-28T04:26:38.764Z,7.90
2022-08-28T04:30:06.338Z,8.10
2022-08-28T04:33:36.673Z,8.23
2022-08-28T04:37:08.085Z,9.05
2022-08-28T04:40:38.865Z,8.52
2022-08-28T04:44:05.546Z,9.27
2022-08-28T04:47:31.508Z,8.70
2022-08-28T04:50:58.363Z,9.30
2022-08-28T04:54:24.670Z,9.20
2022-08-28T04:57:52.281Z,9.07
2022-08-28T05:01:19.698Z,8.48
2022-08-28T05:04:47.576Z,8.45
2022-08-28T05:08:14.565Z,8.18
2022-08-28T05:11:40.679Z,7.70
2022-08-28T05:15:09.117Z,7.35
2022-08-28T05:18:35.925Z,7.47
2022-08-28T05:22:02.063Z,7.75
2022-08-28T05:25:27.900Z,7.70
2022-08-28T05:28:54.611Z,6.85
2022-08-28T05:32:21.690Z,7.28
2022-08-28T05:35:47.960Z,7.30
2022-08-28T05:39:15.045Z,7.28
2022-08-28T05:42:42.662Z,7.80
2022-08-28T05:46:10.785Z,7.43
2022-08-28T05:49:37.761Z,7.10
2022-08-28T05:53:03.709Z,7.03
2022-08-28T05:56:30.873Z,6.97
2022-08-28T05:59:58.239Z,7.13
2022-08-28T06:03:25.061Z,7.28
2022-08-28T06:06:54.937Z,7.45
2022-08-28T06:10:25.243Z,8.32
2022-08-28T06:13:51.238Z,7.82
2022-08-28T06:17:17.955Z,7.78
2022-08-28T06:20:49.557Z,7.80
2022-08-28T06:24:16.787Z,7.78
2022-08-28T06:31:24.311Z,10.13
2022-08-28T06:34:52.187Z,10.27
2022-08-28T06:38:21.380Z,12.40
2022-08-28T06:41:50.297Z,10.70
2022-08-28T06:45:17.840Z,10.80
2022-08-28T06:48:43.772Z,9.63
2022-08-28T06:52:12.111Z,9.63
2022-08-28T06:55:38.458Z,9.80
2022-08-28T06:59:05.359Z,9.55
2022-08-28T07:02:33.153Z,9.27
2022-08-28T07:05:59.781Z,9.23
2022-08-28T07:09:26.095Z,8.52
2022-08-28T07:12:52.138Z,9.20
2022-08-28T07:16:18.710Z,7.77
2022-08-28T07:19:45.009Z,8.18
2022-08-28T07:23:11.245Z,8.32
2022-08-28T07:26:41.346Z,8.27
2022-08-28T07:30:08.956Z,7.38
2022-08-28T07:33:35.173Z,7.80
2022-08-28T07:37:04.492Z,7.68
2022-08-28T07:40:31.446Z,7.07
2022-08-28T07:44:16.431Z,8.13
2022-08-28T07:47:42.511Z,7.40
2022-08-28T07:51:09.552Z,7.23
2022-08-28T07:54:40.717Z,7.15
2022-08-28T07:58:07.576Z,7.45
2022-08-28T08:01:36.309Z,7.03
2022-08-28T08:05:03.614Z,7.22
2022-08-28T08:08:33.861Z,6.78
2022-08-28T08:12:05.805Z,7.10
2022-08-28T08:15:33.846Z,6.57
2022-08-28T08:19:00.399Z,7.68
2022-08-28T08:22:26.955Z,8.23
2022-08-28T08:26:00.028Z,6.68
2022-08-28T08:29:27.329Z,6.97
2022-08-28T08:32:55.096Z,7.07
2022-08-28T08:36:25.515Z,6.10
2022-08-28T08:39:53.743Z,6.75
2022-08-28T08:43:32.144Z,6.55
2022-08-28T08:47:00.750Z,6.70
2022-08-28T08:50:32.982Z,6.53
2022-08-28T08:54:06.815Z,6.72
2022-08-28T08:57:33.783Z,7.57
2022-08-28T09:01:10.100Z,6.75
2022-08-28T09:05:16.085Z,6.78
2022-08-28T09:08:49.695Z,7.38
2022-08-28T09:12:50.140Z,6.80
2022-08-28T09:16:32.107Z,6.55
2022-08-28T09:19:58.777Z,6.22
2022-08-28T09:27:01.834Z,5.90
2022-08-28T09:30:30.779Z,6.15
2022-08-28T09:34:16.584Z,5.93
2022-08-28T09:37:44.558Z,6.15
2022-08-28T09:41:33.008Z,6.15
2022-08-28T09:45:09.097Z,6.20
2022-08-28T09:48:43.810Z,6.25
2022-08-28T09:52:26.981Z,6.53
2022-08-28T09:55:59.099Z,6.82
2022-08-28T09:59:36.421Z,6.55
2022-08-28T10:03:44.977Z,6.20
2022-08-28T10:07:24.817Z,5.40
2022-08-28T10:11:11.927Z,6.35
2022-08-28T10:15:01.865Z,5.90
2022-08-28T10:18:47.418Z,5.57
2022-08-28T10:22:39.755Z,5.63
2022-08-28T10:26:25.768Z,5.80
2022-08-28T10:30:13.285Z,6.32
2022-08-28T10:34:11.370Z,6.10
2022-08-28T10:37:55.450Z,5.53
2022-08-28T10:41:59.351Z,5.95
2022-08-28T10:45:30.660Z,4.78
2022-08-28T10:49:08.811Z,5.72
2022-08-28T10:52:43.234Z,6.78
2022-08-28T10:56:21.173Z,5.18
2022-08-28T10:59:51.214Z,6.43
2022-08-28T11:03:34.556Z,6.78
2022-08-28T11:07:23.244Z,6.05
2022-08-28T11:10:53.755Z,6.47
2022-08-28T11:14:48.507Z,5.22
2022-08-28T11:18:20.848Z,6.22
2022-08-28T11:22:08.624Z,5.63
2022-08-28T11:25:49.104Z,5.65
2022-08-28T11:29:40.216Z,6.60
2022-08-28T11:33:35.637Z,5.72
2022-08-28T11:37:08.449Z,5.30
2022-08-28T11:40:39.470Z,6.60
2022-08-28T11:44:41.795Z,6.20
2022-08-28T11:48:47.993Z,5.88
2022-08-28T11:52:25.661Z,5.97
2022-08-28T11:56:12.626Z,6.55
2022-08-28T12:00:21.746Z,5.60
2022-08-28T12:03:58.472Z,5.63
2022-08-28T12:10:59.286Z,6.20
2022-08-28T12:14:47.228Z,6.88
2022-08-28T12:18:54.187Z,6.45
2022-08-28T12:22:23.607Z,6.65
2022-08-28T12:26:07.981Z,6.85
2022-08-28T12:29:53.668Z,6.55
2022-08-28T12:33:24.615Z,6.15
2022-08-28T12:37:01.832Z,5.95
2022-08-28T12:40:38.069Z,6.40
2022-08-28T12:44:09.250Z,6.00
2022-08-28T12:47:38.292Z,6.03
2022-08-28T12:51:27.363Z,5.80
2022-08-28T12:54:59.133Z,5.80
2022-08-28T12:58:43.229Z,5.55
2022-08-28T13:02:33.858Z,5.57
2022-08-28T13:06:05.922Z,6.28
2022-08-28T13:09:33.317Z,5.65
2022-08-28T13:13:07.403Z,6.10
2022-08-28T13:16:48.874Z,5.78
2022-08-28T13:20:31.664Z,6.57
2022-08-28T13:23:59.146Z,6.00
2022-08-28T13:27:31.850Z,5.22
2022-08-28T13:31:29.629Z,6.07
2022-08-28T13:38:50.691Z,6.10
2022-08-28T13:42:18.549Z,5.70
2022-08-28T13:45:50.060Z,5.75
2022-08-28T13:49:21.563Z,5.32
2022-08-28T13:52:47.845Z,5.90
2022-08-28T13:56:13.946Z,5.70
2022-08-28T13:59:41.036Z,6.10
2022-08-28T14:03:28.033Z,5.88
2022-08-28T14:06:58.599Z,5.65
2022-08-28T14:10:26.815Z,6.40
2022-08-28T14:13:55.741Z,6.18
2022-08-28T14:17:33.848Z,5.53
2022-08-28T14:21:06.607Z,5.75
2022-08-28T14:24:33.558Z,5.65
2022-08-28T14:28:02.606Z,5.97
2022-08-28T14:31:29.916Z,5.88
2022-08-28T14:34:59.229Z,5.70
2022-08-28T14:41:52.049Z,6.10
2022-08-28T14:48:52.975Z,5.25
2022-08-28T14:52:23.751Z,6.10
2022-08-28T14:55:54.811Z,5.25
2022-08-28T19:35:58.953Z,11.95
2022-08-28T19:38:26.290Z,12.20
2022-08-28T19:40:57.110Z,11.68
2022-08-28T19:43:25.128Z,12.43
2022-08-28T19:46:19.581Z,12.23
2022-08-28T19:48:52.623Z,13.68
2022-08-28T19:51:23.913Z,11.52
2022-08-28T19:53:57.245Z,11.63
2022-08-28T19:56:28.492Z,11.18
2022-08-28T19:58:59.335Z,12.50
2022-08-28T20:01:33.096Z,12.27
2022-08-28T20:04:01.085Z,11.80
2022-08-28T20:06:32.000Z,11.60
2022-08-28T20:09:00.597Z,10.90
2022-08-28T20:11:29.068Z,12.15
2022-08-28T20:14:04.890Z,12.77
2022-08-28T20:16:38.574Z,13.00
2022-08-28T20:19:13.865Z,12.63
2022-08-28T20:21:44.503Z,13.55
2022-08-28T20:24:17.804Z,14.50
2022-08-28T20:26:45.230Z,13.52
2022-08-28T20:29:14.003Z,14.38
2022-08-28T20:31:46.361Z,15.45
2022-08-28T20:34:16.388Z,14.52
2022-08-28T20:36:44.501Z,14.55
2022-08-28T20:39:12.656Z,12.30
2022-08-28T20:41:41.602Z,12.38
2022-08-28T20:44:11.098Z,11.68
2022-08-28T20:46:41.502Z,12.50
2022-08-28T20:49:10.713Z,12.68
2022-08-28T20:51:54.030Z,14.02
2022-08-28T20:54:25.925Z,15.88
2022-08-28T20:56:54.835Z,15.95
2022-08-28T20:59:23.789Z,16.95
2022-08-28T21:01:53.344Z,16.60
2022-08-28T21:04:21.078Z,14.95
2022-08-28T21:06:48.614Z,16.27
2022-08-28T21:09:18.766Z,17.48
2022-08-28T21:11:47.240Z,19.15
2022-08-28T21:14:14.806Z,19.58
2022-08-28T21:16:42.783Z,18.88
2022-08-28T21:19:16.298Z,17.17
2022-08-28T21:21:44.489Z,17.15
2022-08-28T21:24:14.041Z,15.90
2022-08-28T21:26:47.948Z,13.80
2022-08-28T21:29:16.731Z,11.93
2022-08-28T21:31:45.298Z,11.18
2022-08-28T21:34:12.875Z,10.32
2022-08-28T21:36:49.536Z,10.13
2022-08-28T21:39:20.739Z,9.65
2022-08-28T21:41:49.000Z,9.35
2022-08-28T21:44:17.917Z,9.70
2022-08-28T21:46:45.423Z,9.85
2022-08-28T21:49:12.951Z,9.85
2022-08-28T21:51:40.371Z,9.73
2022-08-28T21:54:07.834Z,9.77
2022-08-28T21:56:35.376Z,9.07
2022-08-28T21:59:03.160Z,9.30
2022-08-28T22:01:30.725Z,10.00
2022-08-28T22:03:58.295Z,9.65
2022-08-28T22:06:26.696Z,9.02
2022-08-28T22:08:55.783Z,9.05
2022-08-28T22:11:25.084Z,10.10
2022-08-28T22:13:57.104Z,10.35
2022-08-28T22:16:26.062Z,9.80
2022-08-28T22:18:54.165Z,9.20
2022-08-28T22:21:43.272Z,9.45
2022-08-28T22:24:12.086Z,9.25
2022-08-28T22:26:41.374Z,8.55
2022-08-28T22:29:09.354Z,8.50
2022-08-28T22:31:39.655Z,8.63
2022-08-28T22:34:13.814Z,8.25
2022-08-28T22:36:41.198Z,8.32
2022-08-28T22:39:08.812Z,8.25
2022-08-28T22:41:37.736Z,7.72
2022-08-28T22:44:05.536Z,8.45
2022-08-28T22:46:32.871Z,8.73
2022-08-28T22:49:00.353Z,9.02
2022-08-28T22:51:27.841Z,8.50
2022-08-28T22:53:56.239Z,8.60
2022-08-28T22:56:23.700Z,8.25
2022-08-28T22:58:51.346Z,8.77
2022-08-28T23:01:22.112Z,8.63
2022-08-28T23:03:50.453Z,8.60
2022-08-28T23:06:18.739Z,8.55
2022-08-28T23:08:46.186Z,9.02
2022-08-28T23:11:13.728Z,8.50
2022-08-28T23:13:41.537Z,8.82
2022-08-28T23:16:09.865Z,8.32
2022-08-28T23:19:04.292Z,8.10
2022-08-28T23:21:26.460Z,8.63
2022-08-28T23:23:55.261Z,7.70
2022-08-28T23:26:23.780Z,8.13
2022-08-28T23:28:51.938Z,8.05
2022-08-28T23:31:19.571Z,7.38
2022-08-28T23:33:47.699Z,7.47
2022-08-28T23:36:15.319Z,8.25
2022-08-28T23:38:45.087Z,7.80
2022-08-28T23:41:12.691Z,8.18
2022-08-28T23:43:41.151Z,7.90
2022-08-28T23:46:09.959Z,7.07
2022-08-28T23:48:41.253Z,7.88
2022-08-28T23:51:10.091Z,7.55
2022-08-28T23:53:40.021Z,8.40
2022-08-28T23:56:08.311Z,7.78
2022-08-28T23:58:35.899Z,7.85
